sensor_id;sensor_type;location;lat;lon;timestamp;P1;durP1;ratioP1;P2;durP2;ratioP2
53915;SDS011;39827;49.652;18.770;2023-04-25T00:01:03;603.65;;;558.03;;
53915;SDS011;39827;49.652;18.770;2023-04-25T00:03:29;614.08;;;567.92;;
53915;SDS011;39827;49.652;18.770;2023-04-25T00:05:56;621.35;;;575.45;;
53915;SDS011;39827;49.652;18.770;2023-04-25T00:08:22;626.13;;;579.47;;
53915;SDS011;39827;49.652;18.770;2023-04-25T00:10:48;644.50;;;596.35;;
53915;SDS011;39827;49.652;18.770;2023-04-25T00:13:14;659.70;;;611.00;;
53915;SDS011;39827;49.652;18.770;2023-04-25T00:15:42;630.25;;;582.72;;
53915;SDS011;39827;49.652;18.770;2023-04-25T00:18:07;737.00;;;682.13;;
53915;SDS011;39827;49.652;18.770;2023-04-25T00:20:34;731.70;;;678.00;;
53915;SDS011;39827;49.652;18.770;2023-04-25T00:23:00;777.00;;;719.38;;
53915;SDS011;39827;49.652;18.770;2023-04-25T00:25:26;779.67;;;721.42;;
53915;SDS011;39827;49.652;18.770;2023-04-25T00:27:51;781.38;;;723.17;;
53915;SDS011;39827;49.652;18.770;2023-04-25T00:30:17;756.42;;;700.20;;
53915;SDS011;39827;49.652;18.770;2023-04-25T00:32:42;761.85;;;704.88;;
53915;SDS011;39827;49.652;18.770;2023-04-25T00:35:08;752.00;;;695.58;;
53915;SDS011;39827;49.652;18.770;2023-04-25T00:37:34;776.92;;;719.15;;
53915;SDS011;39827;49.652;18.770;2023-04-25T00:40:00;754.88;;;698.25;;
53915;SDS011;39827;49.652;18.770;2023-04-25T00:42:25;779.70;;;721.38;;
53915;SDS011;39827;49.652;18.770;2023-04-25T00:44:51;798.95;;;739.25;;
53915;SDS011;39827;49.652;18.770;2023-04-25T00:47:18;761.28;;;703.85;;
53915;SDS011;39827;49.652;18.770;2023-04-25T00:49:43;735.40;;;679.80;;
53915;SDS011;39827;49.652;18.770;2023-04-25T00:52:09;760.22;;;703.53;;
53915;SDS011;39827;49.652;18.770;2023-04-25T00:54:35;764.58;;;706.92;;
53915;SDS011;39827;49.652;18.770;2023-04-25T00:57:01;775.67;;;717.42;;
53915;SDS011;39827;49.652;18.770;2023-04-25T00:59:27;797.85;;;737.67;;
53915;SDS011;39827;49.652;18.770;2023-04-25T01:01:54;829.35;;;765.75;;
53915;SDS011;39827;49.652;18.770;2023-04-25T01:04:20;851.95;;;785.75;;
53915;SDS011;39827;49.652;18.770;2023-04-25T01:06:46;891.10;;;821.80;;
53915;SDS011;39827;49.652;18.770;2023-04-25T01:09:12;886.58;;;817.63;;
53915;SDS011;39827;49.652;18.770;2023-04-25T01:11:38;876.10;;;808.30;;
53915;SDS011;39827;49.652;18.770;2023-04-25T01:14:05;874.38;;;807.05;;
53915;SDS011;39827;49.652;18.770;2023-04-25T01:16:31;837.45;;;774.13;;
53915;SDS011;39827;49.652;18.770;2023-04-25T01:18:56;814.58;;;751.90;;
53915;SDS011;39827;49.652;18.770;2023-04-25T01:21:22;845.33;;;780.85;;
53915;SDS011;39827;49.652;18.770;2023-04-25T01:23:51;809.67;;;748.38;;
53915;SDS011;39827;49.652;18.770;2023-04-25T01:26:17;851.72;;;785.17;;
53915;SDS011;39827;49.652;18.770;2023-04-25T01:28:43;888.03;;;820.17;;
53915;SDS011;39827;49.652;18.770;2023-04-25T01:31:10;860.60;;;797.30;;
53915;SDS011;39827;49.652;18.770;2023-04-25T01:33:37;837.67;;;775.50;;
53915;SDS011;39827;49.652;18.770;2023-04-25T01:36:02;840.50;;;778.85;;
53915;SDS011;39827;49.652;18.770;2023-04-25T01:38:28;845.15;;;782.88;;
53915;SDS011;39827;49.652;18.770;2023-04-25T01:40:54;790.60;;;731.40;;
53915;SDS011;39827;49.652;18.770;2023-04-25T01:43:20;850.22;;;785.83;;
53915;SDS011;39827;49.652;18.770;2023-04-25T01:45:45;827.78;;;766.08;;
53915;SDS011;39827;49.652;18.770;2023-04-25T01:48:12;784.63;;;726.55;;
53915;SDS011;39827;49.652;18.770;2023-04-25T01:50:39;712.78;;;661.10;;
53915;SDS011;39827;49.652;18.770;2023-04-25T01:53:05;651.95;;;603.80;;
53915;SDS011;39827;49.652;18.770;2023-04-25T01:55:31;686.28;;;635.35;;
53915;SDS011;39827;49.652;18.770;2023-04-25T01:57:56;660.88;;;610.53;;
53915;SDS011;39827;49.652;18.770;2023-04-25T02:00:22;661.33;;;612.20;;
53915;SDS011;39827;49.652;18.770;2023-04-25T02:02:48;586.92;;;544.00;;
53915;SDS011;39827;49.652;18.770;2023-04-25T02:05:15;692.05;;;640.88;;
53915;SDS011;39827;49.652;18.770;2023-04-25T02:07:41;635.33;;;587.83;;
53915;SDS011;39827;49.652;18.770;2023-04-25T02:10:07;619.97;;;574.35;;
53915;SDS011;39827;49.652;18.770;2023-04-25T02:12:32;620.13;;;574.42;;
53915;SDS011;39827;49.652;18.770;2023-04-25T02:14:58;629.47;;;581.65;;
53915;SDS011;39827;49.652;18.770;2023-04-25T02:17:23;611.03;;;566.72;;
53915;SDS011;39827;49.652;18.770;2023-04-25T02:19:48;698.17;;;647.95;;
53915;SDS011;39827;49.652;18.770;2023-04-25T02:22:15;665.78;;;617.28;;
53915;SDS011;39827;49.652;18.770;2023-04-25T02:24:40;626.00;;;579.75;;
53915;SDS011;39827;49.652;18.770;2023-04-25T02:27:06;780.30;;;720.40;;
53915;SDS011;39827;49.652;18.770;2023-04-25T02:29:32;734.15;;;676.90;;
53915;SDS011;39827;49.652;18.770;2023-04-25T02:31:58;769.03;;;710.20;;
53915;SDS011;39827;49.652;18.770;2023-04-25T02:34:23;742.17;;;685.78;;
53915;SDS011;39827;49.652;18.770;2023-04-25T02:36:49;789.13;;;728.40;;
53915;SDS011;39827;49.652;18.770;2023-04-25T02:39:16;754.33;;;697.17;;
53915;SDS011;39827;49.652;18.770;2023-04-25T02:41:41;749.17;;;691.15;;
53915;SDS011;39827;49.652;18.770;2023-04-25T02:44:07;756.90;;;697.90;;
53915;SDS011;39827;49.652;18.770;2023-04-25T02:46:32;772.63;;;714.17;;
53915;SDS011;39827;49.652;18.770;2023-04-25T02:48:58;738.75;;;681.47;;
53915;SDS011;39827;49.652;18.770;2023-04-25T02:51:23;759.25;;;701.95;;
53915;SDS011;39827;49.652;18.770;2023-04-25T02:53:49;708.90;;;654.20;;
53915;SDS011;39827;49.652;18.770;2023-04-25T02:56:15;751.95;;;694.75;;
53915;SDS011;39827;49.652;18.770;2023-04-25T02:58:40;719.78;;;665.15;;
53915;SDS011;39827;49.652;18.770;2023-04-25T03:01:06;759.90;;;702.25;;
53915;SDS011;39827;49.652;18.770;2023-04-25T03:03:31;741.22;;;683.75;;
53915;SDS011;39827;49.652;18.770;2023-04-25T03:05:56;723.97;;;669.15;;
53915;SDS011;39827;49.652;18.770;2023-04-25T03:08:22;716.40;;;662.10;;
53915;SDS011;39827;49.652;18.770;2023-04-25T03:10:47;734.67;;;678.83;;
53915;SDS011;39827;49.652;18.770;2023-04-25T03:13:15;745.50;;;688.70;;
53915;SDS011;39827;49.652;18.770;2023-04-25T03:15:40;739.83;;;682.53;;
53915;SDS011;39827;49.652;18.770;2023-04-25T03:18:05;765.60;;;706.60;;
53915;SDS011;39827;49.652;18.770;2023-04-25T03:20:31;774.20;;;713.63;;
53915;SDS011;39827;49.652;18.770;2023-04-25T03:22:56;772.58;;;713.08;;
53915;SDS011;39827;49.652;18.770;2023-04-25T03:25:22;747.95;;;691.03;;
53915;SDS011;39827;49.652;18.770;2023-04-25T03:27:47;819.17;;;756.05;;
53915;SDS011;39827;49.652;18.770;2023-04-25T03:30:13;770.92;;;710.60;;
53915;SDS011;39827;49.652;18.770;2023-04-25T03:32:38;744.03;;;687.08;;
53915;SDS011;39827;49.652;18.770;2023-04-25T03:35:04;774.38;;;715.80;;
53915;SDS011;39827;49.652;18.770;2023-04-25T03:37:30;792.47;;;732.38;;
53915;SDS011;39827;49.652;18.770;2023-04-25T03:39:55;838.63;;;773.53;;
53915;SDS011;39827;49.652;18.770;2023-04-25T03:42:21;785.63;;;724.47;;
53915;SDS011;39827;49.652;18.770;2023-04-25T03:44:48;820.40;;;755.67;;
53915;SDS011;39827;49.652;18.770;2023-04-25T03:47:14;814.03;;;749.80;;
53915;SDS011;39827;49.652;18.770;2023-04-25T03:49:39;828.83;;;761.97;;
53915;SDS011;39827;49.652;18.770;2023-04-25T03:52:05;856.17;;;789.55;;
53915;SDS011;39827;49.652;18.770;2023-04-25T03:54:30;811.45;;;746.90;;
53915;SDS011;39827;49.652;18.770;2023-04-25T03:56:55;831.45;;;765.88;;
53915;SDS011;39827;49.652;18.770;2023-04-25T03:59:21;833.22;;;769.83;;
53915;SDS011;39827;49.652;18.770;2023-04-25T04:01:46;757.42;;;700.47;;
53915;SDS011;39827;49.652;18.770;2023-04-25T04:04:12;801.97;;;740.72;;
53915;SDS011;39827;49.652;18.770;2023-04-25T04:06:37;821.58;;;758.08;;
53915;SDS011;39827;49.652;18.770;2023-04-25T04:09:03;817.28;;;753.83;;
53915;SDS011;39827;49.652;18.770;2023-04-25T04:11:28;790.17;;;729.65;;
53915;SDS011;39827;49.652;18.770;2023-04-25T04:13:54;817.30;;;754.67;;
53915;SDS011;39827;49.652;18.770;2023-04-25T04:16:19;828.25;;;762.75;;
53915;SDS011;39827;49.652;18.770;2023-04-25T04:18:45;805.03;;;741.72;;
53915;SDS011;39827;49.652;18.770;2023-04-25T04:21:11;771.60;;;712.05;;
53915;SDS011;39827;49.652;18.770;2023-04-25T04:23:36;777.53;;;715.88;;
53915;SDS011;39827;49.652;18.770;2023-04-25T04:26:02;831.78;;;766.50;;
53915;SDS011;39827;49.652;18.770;2023-04-25T04:28:28;780.63;;;718.90;;
53915;SDS011;39827;49.652;18.770;2023-04-25T04:30:53;804.90;;;740.40;;
53915;SDS011;39827;49.652;18.770;2023-04-25T04:33:19;829.17;;;764.75;;
53915;SDS011;39827;49.652;18.770;2023-04-25T04:35:44;819.95;;;756.53;;
53915;SDS011;39827;49.652;18.770;2023-04-25T04:38:11;756.15;;;696.55;;
53915;SDS011;39827;49.652;18.770;2023-04-25T04:40:40;717.30;;;660.42;;
53915;SDS011;39827;49.652;18.770;2023-04-25T04:43:06;627.20;;;577.95;;
53915;SDS011;39827;49.652;18.770;2023-04-25T04:45:33;813.08;;;748.45;;
53915;SDS011;39827;49.652;18.770;2023-04-25T04:47:59;830.97;;;766.22;;
53915;SDS011;39827;49.652;18.770;2023-04-25T04:50:24;840.20;;;773.65;;
53915;SDS011;39827;49.652;18.770;2023-04-25T04:52:51;851.92;;;783.63;;
53915;SDS011;39827;49.652;18.770;2023-04-25T04:55:16;884.95;;;815.78;;
53915;SDS011;39827;49.652;18.770;2023-04-25T04:57:42;788.50;;;725.38;;
53915;SDS011;39827;49.652;18.770;2023-04-25T05:00:07;842.08;;;776.25;;
53915;SDS011;39827;49.652;18.770;2023-04-25T05:02:36;760.97;;;700.85;;
53915;SDS011;39827;49.652;18.770;2023-04-25T05:05:03;830.15;;;765.03;;
53915;SDS011;39827;49.652;18.770;2023-04-25T05:07:28;826.08;;;760.30;;
53915;SDS011;39827;49.652;18.770;2023-04-25T05:09:54;843.70;;;778.38;;
53915;SDS011;39827;49.652;18.770;2023-04-25T05:12:19;805.92;;;742.58;;
53915;SDS011;39827;49.652;18.770;2023-04-25T05:14:44;851.63;;;785.10;;
53915;SDS011;39827;49.652;18.770;2023-04-25T05:17:10;818.33;;;753.97;;
53915;SDS011;39827;49.652;18.770;2023-04-25T05:19:35;814.33;;;751.45;;
53915;SDS011;39827;49.652;18.770;2023-04-25T05:22:01;778.03;;;717.17;;
53915;SDS011;39827;49.652;18.770;2023-04-25T05:24:27;446.23;;;408.33;;
53915;SDS011;39827;49.652;18.770;2023-04-25T05:26:52;459.35;;;419.95;;
53915;SDS011;39827;49.652;18.770;2023-04-25T05:29:18;703.13;;;648.30;;
53915;SDS011;39827;49.652;18.770;2023-04-25T05:31:44;793.42;;;732.33;;
53915;SDS011;39827;49.652;18.770;2023-04-25T05:34:10;816.20;;;753.45;;
53915;SDS011;39827;49.652;18.770;2023-04-25T05:36:35;589.05;;;540.80;;
53915;SDS011;39827;49.652;18.770;2023-04-25T05:39:01;644.92;;;593.88;;
53915;SDS011;39827;49.652;18.770;2023-04-25T05:41:28;577.83;;;530.60;;
53915;SDS011;39827;49.652;18.770;2023-04-25T05:43:54;423.08;;;386.13;;
53915;SDS011;39827;49.652;18.770;2023-04-25T05:46:19;578.38;;;532.05;;
53915;SDS011;39827;49.652;18.770;2023-04-25T05:48:45;580.17;;;533.53;;
53915;SDS011;39827;49.652;18.770;2023-04-25T05:51:10;287.67;;;262.38;;
53915;SDS011;39827;49.652;18.770;2023-04-25T05:53:35;511.90;;;470.77;;
53915;SDS011;39827;49.652;18.770;2023-04-25T05:56:02;558.72;;;513.60;;
53915;SDS011;39827;49.652;18.770;2023-04-25T05:58:28;690.10;;;636.95;;
53915;SDS011;39827;49.652;18.770;2023-04-25T06:00:54;596.20;;;548.30;;
53915;SDS011;39827;49.652;18.770;2023-04-25T06:03:20;616.90;;;567.97;;
53915;SDS011;39827;49.652;18.770;2023-04-25T06:05:46;626.65;;;577.35;;
53915;SDS011;39827;49.652;18.770;2023-04-25T06:08:11;384.70;;;350.85;;
53915;SDS011;39827;49.652;18.770;2023-04-25T06:10:36;384.60;;;352.08;;
53915;SDS011;39827;49.652;18.770;2023-04-25T06:13:02;255.32;;;233.65;;
53915;SDS011;39827;49.652;18.770;2023-04-25T06:15:29;380.83;;;348.73;;
53915;SDS011;39827;49.652;18.770;2023-04-25T06:17:54;531.67;;;488.48;;
53915;SDS011;39827;49.652;18.770;2023-04-25T06:20:20;334.98;;;307.00;;
53915;SDS011;39827;49.652;18.770;2023-04-25T06:22:48;516.67;;;473.35;;
53915;SDS011;39827;49.652;18.770;2023-04-25T06:25:14;355.27;;;324.63;;
53915;SDS011;39827;49.652;18.770;2023-04-25T06:27:40;309.17;;;283.08;;
53915;SDS011;39827;49.652;18.770;2023-04-25T06:30:05;338.92;;;309.83;;
53915;SDS011;39827;49.652;18.770;2023-04-25T06:32:31;451.25;;;414.23;;
53915;SDS011;39827;49.652;18.770;2023-04-25T06:34:57;263.20;;;240.38;;
53915;SDS011;39827;49.652;18.770;2023-04-25T06:37:23;345.00;;;314.75;;
53915;SDS011;39827;49.652;18.770;2023-04-25T06:39:48;715.00;;;657.95;;
53915;SDS011;39827;49.652;18.770;2023-04-25T06:42:13;711.85;;;654.55;;
53915;SDS011;39827;49.652;18.770;2023-04-25T06:44:39;462.17;;;422.60;;
53915;SDS011;39827;49.652;18.770;2023-04-25T06:47:04;318.50;;;290.85;;
53915;SDS011;39827;49.652;18.770;2023-04-25T06:49:30;658.08;;;605.38;;
53915;SDS011;39827;49.652;18.770;2023-04-25T06:51:55;564.92;;;518.22;;
53915;SDS011;39827;49.652;18.770;2023-04-25T06:54:20;721.97;;;664.47;;
53915;SDS011;39827;49.652;18.770;2023-04-25T06:56:46;322.63;;;295.13;;
53915;SDS011;39827;49.652;18.770;2023-04-25T06:59:11;356.55;;;326.50;;
53915;SDS011;39827;49.652;18.770;2023-04-25T07:01:37;382.48;;;350.50;;
53915;SDS011;39827;49.652;18.770;2023-04-25T07:04:02;260.83;;;239.70;;
53915;SDS011;39827;49.652;18.770;2023-04-25T07:06:27;264.70;;;242.40;;
53915;SDS011;39827;49.652;18.770;2023-04-25T07:08:53;330.08;;;301.67;;
53915;SDS011;39827;49.652;18.770;2023-04-25T07:11:19;292.33;;;268.27;;
53915;SDS011;39827;49.652;18.770;2023-04-25T07:13:45;333.42;;;305.67;;
53915;SDS011;39827;49.652;18.770;2023-04-25T07:16:10;398.60;;;365.27;;
53915;SDS011;39827;49.652;18.770;2023-04-25T07:18:36;405.58;;;371.73;;
53915;SDS011;39827;49.652;18.770;2023-04-25T07:21:01;292.77;;;268.50;;
53915;SDS011;39827;49.652;18.770;2023-04-25T07:23:26;263.08;;;241.75;;
53915;SDS011;39827;49.652;18.770;2023-04-25T07:25:52;248.65;;;227.82;;
53915;SDS011;39827;49.652;18.770;2023-04-25T07:28:17;496.80;;;455.08;;
53915;SDS011;39827;49.652;18.770;2023-04-25T07:30:43;634.30;;;584.08;;
53915;SDS011;39827;49.652;18.770;2023-04-25T07:33:08;763.92;;;704.55;;
53915;SDS011;39827;49.652;18.770;2023-04-25T07:35:34;756.33;;;697.38;;
53915;SDS011;39827;49.652;18.770;2023-04-25T07:38:01;750.83;;;692.47;;
53915;SDS011;39827;49.652;18.770;2023-04-25T07:40:27;733.58;;;676.15;;
53915;SDS011;39827;49.652;18.770;2023-04-25T07:42:52;573.03;;;526.55;;
53915;SDS011;39827;49.652;18.770;2023-04-25T07:45:18;353.83;;;323.83;;
53915;SDS011;39827;49.652;18.770;2023-04-25T07:47:43;472.95;;;432.88;;
53915;SDS011;39827;49.652;18.770;2023-04-25T07:50:08;461.40;;;422.95;;
53915;SDS011;39827;49.652;18.770;2023-04-25T07:52:35;473.13;;;433.13;;
53915;SDS011;39827;49.652;18.770;2023-04-25T07:55:00;593.22;;;544.85;;
53915;SDS011;39827;49.652;18.770;2023-04-25T07:57:26;612.85;;;563.05;;
53915;SDS011;39827;49.652;18.770;2023-04-25T07:59:51;507.60;;;465.95;;
53915;SDS011;39827;49.652;18.770;2023-04-25T08:02:17;527.08;;;484.23;;
53915;SDS011;39827;49.652;18.770;2023-04-25T08:04:42;631.58;;;580.97;;
53915;SDS011;39827;49.652;18.770;2023-04-25T08:07:08;614.13;;;564.17;;
53915;SDS011;39827;49.652;18.770;2023-04-25T08:09:33;557.05;;;510.83;;
53915;SDS011;39827;49.652;18.770;2023-04-25T08:12:00;548.63;;;503.25;;
53915;SDS011;39827;49.652;18.770;2023-04-25T08:14:27;668.67;;;615.25;;
53915;SDS011;39827;49.652;18.770;2023-04-25T08:16:54;609.80;;;561.00;;
53915;SDS011;39827;49.652;18.770;2023-04-25T08:19:19;400.48;;;366.55;;
53915;SDS011;39827;49.652;18.770;2023-04-25T08:21:44;638.00;;;586.30;;
53915;SDS011;39827;49.652;18.770;2023-04-25T08:24:10;566.83;;;520.75;;
53915;SDS011;39827;49.652;18.770;2023-04-25T08:26:35;782.00;;;716.20;;
53915;SDS011;39827;49.652;18.770;2023-04-25T08:29:02;753.95;;;690.47;;
53915;SDS011;39827;49.652;18.770;2023-04-25T08:31:27;516.60;;;472.58;;
53915;SDS011;39827;49.652;18.770;2023-04-25T08:33:53;611.40;;;561.90;;
53915;SDS011;39827;49.652;18.770;2023-04-25T08:36:18;494.25;;;451.55;;
53915;SDS011;39827;49.652;18.770;2023-04-25T08:38:43;515.28;;;472.75;;
53915;SDS011;39827;49.652;18.770;2023-04-25T08:41:09;606.55;;;557.13;;
53915;SDS011;39827;49.652;18.770;2023-04-25T08:43:36;363.88;;;332.90;;
53915;SDS011;39827;49.652;18.770;2023-04-25T08:46:02;600.83;;;551.95;;
53915;SDS011;39827;49.652;18.770;2023-04-25T08:48:28;413.92;;;377.70;;
53915;SDS011;39827;49.652;18.770;2023-04-25T08:50:57;628.78;;;577.92;;
53915;SDS011;39827;49.652;18.770;2023-04-25T08:53:27;616.15;;;562.25;;
53915;SDS011;39827;49.652;18.770;2023-04-25T08:55:54;688.13;;;627.63;;
53915;SDS011;39827;49.652;18.770;2023-04-25T08:58:21;774.40;;;708.13;;
53915;SDS011;39827;49.652;18.770;2023-04-25T09:00:47;493.48;;;448.23;;
53915;SDS011;39827;49.652;18.770;2023-04-25T09:03:13;781.88;;;714.40;;
53915;SDS011;39827;49.652;18.770;2023-04-25T09:05:40;758.55;;;695.88;;
53915;SDS011;39827;49.652;18.770;2023-04-25T09:08:06;456.23;;;417.95;;
53915;SDS011;39827;49.652;18.770;2023-04-25T09:10:32;721.05;;;662.65;;
53915;SDS011;39827;49.652;18.770;2023-04-25T09:15:53;670.67;;;613.40;;
53915;SDS011;39827;49.652;18.770;2023-04-25T09:18:27;776.15;;;713.30;;
53915;SDS011;39827;49.652;18.770;2023-04-25T09:21:09;629.33;;;574.97;;
53915;SDS011;39827;49.652;18.770;2023-04-25T09:23:40;675.17;;;619.25;;
53915;SDS011;39827;49.652;18.770;2023-04-25T09:26:07;704.65;;;646.03;;
53915;SDS011;39827;49.652;18.770;2023-04-25T09:28:33;730.78;;;669.78;;
53915;SDS011;39827;49.652;18.770;2023-04-25T09:31:00;516.33;;;471.05;;
53915;SDS011;39827;49.652;18.770;2023-04-25T09:33:30;632.25;;;581.00;;
53915;SDS011;39827;49.652;18.770;2023-04-25T09:36:02;413.83;;;378.60;;
53915;SDS011;39827;49.652;18.770;2023-04-25T09:38:32;457.73;;;419.52;;
53915;SDS011;39827;49.652;18.770;2023-04-25T09:41:06;510.63;;;465.48;;
53915;SDS011;39827;49.652;18.770;2023-04-25T09:43:32;760.13;;;698.83;;
53915;SDS011;39827;49.652;18.770;2023-04-25T09:45:57;588.15;;;540.15;;
53915;SDS011;39827;49.652;18.770;2023-04-25T09:48:25;793.78;;;728.42;;
53915;SDS011;39827;49.652;18.770;2023-04-25T09:51:07;544.78;;;500.35;;
53915;SDS011;39827;49.652;18.770;2023-04-25T09:53:39;848.67;;;781.83;;
53915;SDS011;39827;49.652;18.770;2023-04-25T09:56:07;746.40;;;688.47;;
53915;SDS011;39827;49.652;18.770;2023-04-25T09:58:34;697.40;;;642.97;;
53915;SDS011;39827;49.652;18.770;2023-04-25T10:01:02;647.17;;;596.10;;
53915;SDS011;39827;49.652;18.770;2023-04-25T10:03:30;588.03;;;539.58;;
53915;SDS011;39827;49.652;18.770;2023-04-25T10:05:58;835.63;;;767.40;;
53915;SDS011;39827;49.652;18.770;2023-04-25T10:08:26;662.10;;;608.40;;
53915;SDS011;39827;49.652;18.770;2023-04-25T10:10:56;838.70;;;770.88;;
53915;SDS011;39827;49.652;18.770;2023-04-25T10:13:22;719.92;;;662.38;;
53915;SDS011;39827;49.652;18.770;2023-04-25T10:15:48;777.67;;;715.00;;
53915;SDS011;39827;49.652;18.770;2023-04-25T10:18:14;872.70;;;799.72;;
53915;SDS011;39827;49.652;18.770;2023-04-25T10:20:40;1114.82;;;999.90;;
53915;SDS011;39827;49.652;18.770;2023-04-25T10:23:11;1107.90;;;999.90;;
53915;SDS011;39827;49.652;18.770;2023-04-25T10:25:40;1161.50;;;999.90;;
53915;SDS011;39827;49.652;18.770;2023-04-25T10:28:06;1142.38;;;999.90;;
53915;SDS011;39827;49.652;18.770;2023-04-25T10:30:32;1155.70;;;999.90;;
53915;SDS011;39827;49.652;18.770;2023-04-25T10:32:58;1099.82;;;998.25;;
53915;SDS011;39827;49.652;18.770;2023-04-25T10:35:26;1067.25;;;973.08;;
53915;SDS011;39827;49.652;18.770;2023-04-25T10:38:05;1139.70;;;999.90;;
53915;SDS011;39827;49.652;18.770;2023-04-25T10:40:35;1017.27;;;932.20;;
53915;SDS011;39827;49.652;18.770;2023-04-25T10:46:16;1175.07;;;999.90;;
53915;SDS011;39827;49.652;18.770;2023-04-25T10:48:44;1165.40;;;999.90;;
53915;SDS011;39827;49.652;18.770;2023-04-25T10:51:15;1166.22;;;999.90;;
53915;SDS011;39827;49.652;18.770;2023-04-25T10:56:20;1163.53;;;999.90;;
53915;SDS011;39827;49.652;18.770;2023-04-25T10:58:46;1189.70;;;999.90;;
53915;SDS011;39827;49.652;18.770;2023-04-25T11:01:13;1183.72;;;999.90;;
53915;SDS011;39827;49.652;18.770;2023-04-25T11:03:42;1163.00;;;999.90;;
53915;SDS011;39827;49.652;18.770;2023-04-25T11:06:17;1198.95;;;999.90;;
53915;SDS011;39827;49.652;18.770;2023-04-25T11:08:49;1197.68;;;999.90;;
53915;SDS011;39827;49.652;18.770;2023-04-25T11:11:19;1170.80;;;999.90;;
53915;SDS011;39827;49.652;18.770;2023-04-25T11:13:47;1160.43;;;999.90;;
53915;SDS011;39827;49.652;18.770;2023-04-25T11:16:14;1159.35;;;999.90;;
53915;SDS011;39827;49.652;18.770;2023-04-25T11:18:43;1105.45;;;999.10;;
53915;SDS011;39827;49.652;18.770;2023-04-25T11:21:09;1170.90;;;999.90;;
53915;SDS011;39827;49.652;18.770;2023-04-25T11:23:35;1191.03;;;999.90;;
53915;SDS011;39827;49.652;18.770;2023-04-25T11:26:01;1189.47;;;999.90;;
53915;SDS011;39827;49.652;18.770;2023-04-25T11:28:28;1182.38;;;999.90;;
53915;SDS011;39827;49.652;18.770;2023-04-25T11:30:53;1177.00;;;999.90;;
53915;SDS011;39827;49.652;18.770;2023-04-25T11:33:22;1154.82;;;999.90;;
53915;SDS011;39827;49.652;18.770;2023-04-25T11:35:49;1201.60;;;999.90;;
53915;SDS011;39827;49.652;18.770;2023-04-25T11:38:14;1196.40;;;999.90;;
53915;SDS011;39827;49.652;18.770;2023-04-25T11:40:40;1187.18;;;999.90;;
53915;SDS011;39827;49.652;18.770;2023-04-25T11:43:05;1178.07;;;999.90;;
53915;SDS011;39827;49.652;18.770;2023-04-25T11:45:32;1178.15;;;999.90;;
53915;SDS011;39827;49.652;18.770;2023-04-25T11:47:57;1172.70;;;999.90;;
53915;SDS011;39827;49.652;18.770;2023-04-25T11:50:23;1173.60;;;999.90;;
53915;SDS011;39827;49.652;18.770;2023-04-25T11:52:48;1183.63;;;999.90;;
53915;SDS011;39827;49.652;18.770;2023-04-25T11:55:18;1126.50;;;999.90;;
53915;SDS011;39827;49.652;18.770;2023-04-25T11:57:45;1145.50;;;999.90;;
53915;SDS011;39827;49.652;18.770;2023-04-25T12:02:45;1173.03;;;999.90;;
53915;SDS011;39827;49.652;18.770;2023-04-25T12:05:13;1157.40;;;999.90;;
53915;SDS011;39827;49.652;18.770;2023-04-25T12:07:40;1163.85;;;999.90;;
53915;SDS011;39827;49.652;18.770;2023-04-25T12:10:10;1155.82;;;999.90;;
53915;SDS011;39827;49.652;18.770;2023-04-25T12:12:37;1139.53;;;999.90;;
53915;SDS011;39827;49.652;18.770;2023-04-25T12:17:40;1143.93;;;999.90;;
53915;SDS011;39827;49.652;18.770;2023-04-25T12:20:07;1137.65;;;999.90;;
53915;SDS011;39827;49.652;18.770;2023-04-25T12:22:37;1163.60;;;999.90;;
53915;SDS011;39827;49.652;18.770;2023-04-25T12:25:03;1153.63;;;999.90;;
53915;SDS011;39827;49.652;18.770;2023-04-25T12:27:30;1138.15;;;999.90;;
53915;SDS011;39827;49.652;18.770;2023-04-25T12:29:56;1151.90;;;999.90;;
53915;SDS011;39827;49.652;18.770;2023-04-25T12:32:23;1153.10;;;999.90;;
53915;SDS011;39827;49.652;18.770;2023-04-25T12:34:49;1163.50;;;999.90;;
53915;SDS011;39827;49.652;18.770;2023-04-25T12:37:14;1167.70;;;999.90;;
53915;SDS011;39827;49.652;18.770;2023-04-25T12:39:40;1144.90;;;999.90;;
53915;SDS011;39827;49.652;18.770;2023-04-25T12:42:06;1170.28;;;999.90;;
53915;SDS011;39827;49.652;18.770;2023-04-25T12:44:33;1146.50;;;999.90;;
53915;SDS011;39827;49.652;18.770;2023-04-25T12:46:58;1133.43;;;999.90;;
53915;SDS011;39827;49.652;18.770;2023-04-25T12:49:24;1166.97;;;999.90;;
53915;SDS011;39827;49.652;18.770;2023-04-25T12:51:50;1172.80;;;999.90;;
53915;SDS011;39827;49.652;18.770;2023-04-25T12:54:16;1158.20;;;999.90;;
53915;SDS011;39827;49.652;18.770;2023-04-25T12:56:42;1125.70;;;999.90;;
53915;SDS011;39827;49.652;18.770;2023-04-25T12:59:07;1124.10;;;999.90;;
53915;SDS011;39827;49.652;18.770;2023-04-25T13:01:33;1128.20;;;999.90;;
53915;SDS011;39827;49.652;18.770;2023-04-25T13:03:58;1107.13;;;999.90;;
53915;SDS011;39827;49.652;18.770;2023-04-25T13:06:23;1095.00;;;986.55;;
53915;SDS011;39827;49.652;18.770;2023-04-25T13:08:49;1074.30;;;965.17;;
53915;SDS011;39827;49.652;18.770;2023-04-25T13:11:14;1084.10;;;972.85;;
53915;SDS011;39827;49.652;18.770;2023-04-25T13:13:40;1079.18;;;972.53;;
53915;SDS011;39827;49.652;18.770;2023-04-25T13:16:06;1066.72;;;963.17;;
53915;SDS011;39827;49.652;18.770;2023-04-25T13:18:32;1086.57;;;983.15;;
53915;SDS011;39827;49.652;18.770;2023-04-25T13:20:58;1069.57;;;972.58;;
53915;SDS011;39827;49.652;18.770;2023-04-25T13:23:25;1084.53;;;980.72;;
53915;SDS011;39827;49.652;18.770;2023-04-25T13:25:53;1084.20;;;979.05;;
53915;SDS011;39827;49.652;18.770;2023-04-25T13:28:20;1107.30;;;999.90;;
53915;SDS011;39827;49.652;18.770;2023-04-25T13:30:46;1080.53;;;977.42;;
53915;SDS011;39827;49.652;18.770;2023-04-25T13:33:12;1071.50;;;973.78;;
53915;SDS011;39827;49.652;18.770;2023-04-25T13:35:38;1097.50;;;994.72;;
53915;SDS011;39827;49.652;18.770;2023-04-25T13:38:05;1096.30;;;994.45;;
53915;SDS011;39827;49.652;18.770;2023-04-25T13:40:31;1089.97;;;988.20;;
53915;SDS011;39827;49.652;18.770;2023-04-25T13:42:57;1083.78;;;977.65;;
53915;SDS011;39827;49.652;18.770;2023-04-25T13:45:24;1081.47;;;978.20;;
53915;SDS011;39827;49.652;18.770;2023-04-25T13:47:49;1077.80;;;973.70;;
53915;SDS011;39827;49.652;18.770;2023-04-25T13:50:15;1091.18;;;987.72;;